sensor_id;sensor_type;location;lat;lon;timestamp;pressure;altitude;pressure_sealevel;temperature;humidity
43553;BME280;29153;42.696;23.218;2023-05-21T00:01:41;94342.79;;;10.88;100.00
43553;BME280;29153;42.696;23.218;2023-05-21T00:04:09;94346.80;;;10.83;100.00
43553;BME280;29153;42.696;23.218;2023-05-21T00:06:38;94343.66;;;10.81;100.00
43553;BME280;29153;42.696;23.218;2023-05-21T00:09:06;94339.77;;;10.74;100.00
43553;BME280;29153;42.696;23.218;2023-05-21T00:11:33;94334.47;;;10.71;100.00
43553;BME280;29153;42.696;23.218;2023-05-21T00:14:01;94334.28;;;10.63;100.00
43553;BME280;29153;42.696;23.218;2023-05-21T00:16:28;94332.45;;;10.58;100.00
43553;BME280;29153;42.696;23.218;2023-05-21T00:18:56;94330.87;;;10.57;100.00
43553;BME280;29153;42.696;23.218;2023-05-21T00:21:23;94326.37;;;10.58;100.00
43553;BME280;29153;42.696;23.218;2023-05-21T00:23:53;94323.22;;;10.56;100.00
43553;BME280;29153;42.696;23.218;2023-05-21T00:26:21;94331.13;;;10.58;100.00
43553;BME280;29153;42.696;23.218;2023-05-21T00:28:52;94325.38;;;10.51;100.00
43553;BME280;29153;42.696;23.218;2023-05-21T00:31:19;94323.69;;;10.29;100.00
43553;BME280;29153;42.696;23.218;2023-05-21T00:33:47;94323.69;;;10.29;100.00
43553;BME280;29153;42.696;23.218;2023-05-21T00:36:15;94327.09;;;10.32;100.00
43553;BME280;29153;42.696;23.218;2023-05-21T00:38:43;94330.27;;;10.34;100.00
43553;BME280;29153;42.696;23.218;2023-05-21T00:41:11;94323.19;;;10.24;100.00
43553;BME280;29153;42.696;23.218;2023-05-21T00:43:39;94320.04;;;10.22;100.00
43553;BME280;29153;42.696;23.218;2023-05-21T00:46:07;94319.02;;;10.16;100.00
43553;BME280;29153;42.696;23.218;2023-05-21T00:48:37;94318.59;;;9.96;100.00
43553;BME280;29153;42.696;23.218;2023-05-21T00:51:06;94317.27;;;9.96;100.00
43553;BME280;29153;42.696;23.218;2023-05-21T00:53:33;94316.42;;;10.03;100.00
43553;BME280;29153;42.696;23.218;2023-05-21T00:56:02;94316.95;;;10.02;100.00
43553;BME280;29153;42.696;23.218;2023-05-21T00:58:30;94313.30;;;9.93;100.00
43553;BME280;29153;42.696;23.218;2023-05-21T01:01:00;94312.50;;;9.93;100.00
43553;BME280;29153;42.696;23.218;2023-05-21T01:03:29;94311.97;;;9.93;100.00
43553;BME280;29153;42.696;23.218;2023-05-21T01:05:58;94313.30;;;9.93;100.00
43553;BME280;29153;42.696;23.218;2023-05-21T01:08:27;94314.41;;;9.87;100.00
43553;BME280;29153;42.696;23.218;2023-05-21T01:10:54;94307.82;;;9.82;100.00
43553;BME280;29153;42.696;23.218;2023-05-21T01:13:22;94306.20;;;9.86;100.00
43553;BME280;29153;42.696;23.218;2023-05-21T01:15:52;94299.86;;;9.85;100.00
43553;BME280;29153;42.696;23.218;2023-05-21T01:18:21;94304.91;;;9.84;100.00
43553;BME280;29153;42.696;23.218;2023-05-21T01:20:49;94301.47;;;9.83;100.00
43553;BME280;29153;42.696;23.218;2023-05-21T01:23:18;94295.89;;;9.87;100.00
43553;BME280;29153;42.696;23.218;2023-05-21T01:25:46;94303.30;;;9.85;100.00
43553;BME280;29153;42.696;23.218;2023-05-21T01:28:14;94299.06;;;9.84;100.00
43553;BME280;29153;42.696;23.218;2023-05-21T01:30:42;94297.50;;;9.83;100.00
43553;BME280;29153;42.696;23.218;2023-05-21T01:33:38;94295.67;;;9.79;100.00
43553;BME280;29153;42.696;23.218;2023-05-21T01:36:22;94291.78;;;9.66;100.00
43553;BME280;29153;42.696;23.218;2023-05-21T01:38:54;94297.07;;;9.66;100.00
43553;BME280;29153;42.696;23.218;2023-05-21T01:41:18;94295.27;;;9.56;100.00
43553;BME280;29153;42.696;23.218;2023-05-21T01:43:46;94297.64;;;9.58;100.00
43553;BME280;29153;42.696;23.218;2023-05-21T01:46:16;94299.19;;;9.64;100.00
43553;BME280;29153;42.696;23.218;2023-05-21T01:48:45;94300.80;;;9.60;100.00
43553;BME280;29153;42.696;23.218;2023-05-21T01:51:14;94297.38;;;9.57;100.00
43553;BME280;29153;42.696;23.218;2023-05-21T01:53:42;94283.89;;;9.56;100.00
43553;BME280;29153;42.696;23.218;2023-05-21T01:56:09;94288.34;;;9.63;100.00
43553;BME280;29153;42.696;23.218;2023-05-21T01:58:38;94285.14;;;9.69;100.00
43553;BME280;29153;42.696;23.218;2023-05-21T02:01:05;94283.03;;;9.68;100.00
43553;BME280;29153;42.696;23.218;2023-05-21T02:03:33;94284.66;;;9.62;100.00
43553;BME280;29153;42.696;23.218;2023-05-21T02:06:00;94280.36;;;9.73;100.00
43553;BME280;29153;42.696;23.218;2023-05-21T02:08:28;94275.89;;;9.71;100.00
43553;BME280;29153;42.696;23.218;2023-05-21T02:10:56;94270.06;;;9.69;100.00
43553;BME280;29153;42.696;23.218;2023-05-21T02:13:24;94269.30;;;9.64;100.00
43553;BME280;29153;42.696;23.218;2023-05-21T02:15:51;94270.91;;;9.59;100.00
43553;BME280;29153;42.696;23.218;2023-05-21T02:18:20;94267.78;;;9.52;100.00
43553;BME280;29153;42.696;23.218;2023-05-21T02:20:49;94271.20;;;9.58;100.00
43553;BME280;29153;42.696;23.218;2023-05-21T02:23:16;94266.44;;;9.55;100.00
43553;BME280;29153;42.696;23.218;2023-05-21T02:25:44;94272.02;;;9.51;100.00
43553;BME280;29153;42.696;23.218;2023-05-21T02:28:11;94268.87;;;9.49;100.00
43553;BME280;29153;42.696;23.218;2023-05-21T02:30:39;94276.55;;;9.43;100.00
43553;BME280;29153;42.696;23.218;2023-05-21T02:33:06;94279.48;;;9.39;100.00
43553;BME280;29153;42.696;23.218;2023-05-21T02:35:34;94279.23;;;9.33;100.00
43553;BME280;29153;42.696;23.218;2023-05-21T02:38:01;94280.86;;;9.26;100.00
43553;BME280;29153;42.696;23.218;2023-05-21T02:40:29;94275.61;;;9.19;100.00
43553;BME280;29153;42.696;23.218;2023-05-21T02:42:58;94283.55;;;9.13;100.00
43553;BME280;29153;42.696;23.218;2023-05-21T02:45:27;94276.43;;;9.09;100.00
43553;BME280;29153;42.696;23.218;2023-05-21T02:47:55;94271.67;;;9.08;100.00
43553;BME280;29153;42.696;23.218;2023-05-21T02:50:22;94270.09;;;9.10;100.00
43553;BME280;29153;42.696;23.218;2023-05-21T02:52:49;94271.16;;;9.06;100.00
43553;BME280;29153;42.696;23.218;2023-05-21T02:55:17;94267.70;;;9.08;100.00
43553;BME280;29153;42.696;23.218;2023-05-21T02:57:45;94271.94;;;9.09;100.00
43553;BME280;29153;42.696;23.218;2023-05-21T03:00:13;94271.39;;;9.12;100.00
43553;BME280;29153;42.696;23.218;2023-05-21T03:02:41;94276.67;;;9.12;100.00
43553;BME280;29153;42.696;23.218;2023-05-21T03:05:09;94271.14;;;9.09;100.00
43553;BME280;29153;42.696;23.218;2023-05-21T03:07:37;94268.27;;;9.00;100.00
43553;BME280;29153;42.696;23.218;2023-05-21T03:10:04;94269.59;;;8.95;100.00
43553;BME280;29153;42.696;23.218;2023-05-21T03:12:32;94273.83;;;8.96;100.00
43553;BME280;29153;42.696;23.218;2023-05-21T03:14:59;94281.48;;;8.95;100.00
43553;BME280;29153;42.696;23.218;2023-05-21T03:17:27;94278.84;;;8.95;100.00
43553;BME280;29153;42.696;23.218;2023-05-21T03:19:54;94282.04;;;8.87;100.00
43553;BME280;29153;42.696;23.218;2023-05-21T03:22:22;94287.87;;;8.84;100.00
43553;BME280;29153;42.696;23.218;2023-05-21T03:24:49;94289.70;;;8.94;100.00
43553;BME280;29153;42.696;23.218;2023-05-21T03:27:18;94287.30;;;8.95;100.00
43553;BME280;29153;42.696;23.218;2023-05-21T03:29:46;94283.86;;;8.94;100.00
43553;BME280;29153;42.696;23.218;2023-05-21T03:32:14;94287.58;;;8.98;100.00
43553;BME280;29153;42.696;23.218;2023-05-21T03:34:41;94292.58;;;9.02;100.00
43553;BME280;29153;42.696;23.218;2023-05-21T03:37:08;94287.81;;;9.07;100.00
43553;BME280;29153;42.696;23.218;2023-05-21T03:39:36;94289.64;;;9.09;100.00
43553;BME280;29153;42.696;23.218;2023-05-21T03:42:03;94290.13;;;9.21;100.00
43553;BME280;29153;42.696;23.218;2023-05-21T03:44:31;94287.98;;;9.31;100.00
43553;BME280;29153;42.696;23.218;2023-05-21T03:46:58;94291.58;;;9.50;100.00
43553;BME280;29153;42.696;23.218;2023-05-21T03:49:26;94283.63;;;9.55;100.00
43553;BME280;29153;42.696;23.218;2023-05-21T03:51:53;94287.30;;;9.59;100.00
43553;BME280;29153;42.696;23.218;2023-05-21T03:54:21;94285.91;;;9.72;100.00
43553;BME280;29153;42.696;23.218;2023-05-21T03:56:48;94282.42;;;9.84;100.00
43553;BME280;29153;42.696;23.218;2023-05-21T03:59:16;94284.75;;;9.90;100.00
43553;BME280;29153;42.696;23.218;2023-05-21T04:01:43;94279.11;;;10.02;100.00
43553;BME280;29153;42.696;23.218;2023-05-21T04:04:11;94283.02;;;10.12;100.00
43553;BME280;29153;42.696;23.218;2023-05-21T04:06:38;94282.13;;;10.29;100.00
43553;BME280;29153;42.696;23.218;2023-05-21T04:09:07;94274.67;;;10.34;100.00
43553;BME280;29153;42.696;23.218;2023-05-21T04:11:34;94279.64;;;10.40;100.00
43553;BME280;29153;42.696;23.218;2023-05-21T04:14:02;94269.53;;;10.45;100.00
43553;BME280;29153;42.696;23.218;2023-05-21T04:16:29;94280.35;;;10.51;100.00
43553;BME280;29153;42.696;23.218;2023-05-21T04:18:59;94277.67;;;10.56;100.00
43553;BME280;29153;42.696;23.218;2023-05-21T04:21:26;94278.34;;;10.69;100.00
43553;BME280;29153;42.696;23.218;2023-05-21T04:23:53;94276.18;;;10.74;100.00
43553;BME280;29153;42.696;23.218;2023-05-21T04:26:23;94275.48;;;10.87;100.00
43553;BME280;29153;42.696;23.218;2023-05-21T04:28:50;94277.95;;;11.05;100.00
43553;BME280;29153;42.696;23.218;2023-05-21T04:31:19;94275.86;;;11.25;100.00
43553;BME280;29153;42.696;23.218;2023-05-21T04:33:47;94274.42;;;11.35;100.00
43553;BME280;29153;42.696;23.218;2023-05-21T04:36:14;94274.42;;;11.35;100.00
43553;BME280;29153;42.696;23.218;2023-05-21T04:38:42;94275.66;;;11.43;100.00
43553;BME280;29153;42.696;23.218;2023-05-21T04:41:10;94278.45;;;11.54;100.00
43553;BME280;29153;42.696;23.218;2023-05-21T04:43:38;94273.52;;;11.66;100.00
43553;BME280;29153;42.696;23.218;2023-05-21T04:46:07;94275.83;;;11.73;100.00
43553;BME280;29153;42.696;23.218;2023-05-21T04:48:35;94273.41;;;11.76;100.00
43553;BME280;29153;42.696;23.218;2023-05-21T04:51:02;94281.20;;;11.89;100.00
43553;BME280;29153;42.696;23.218;2023-05-21T04:53:31;94278.69;;;11.98;100.00
43553;BME280;29153;42.696;23.218;2023-05-21T04:56:01;94278.78;;;12.09;100.00
43553;BME280;29153;42.696;23.218;2023-05-21T04:58:29;94275.06;;;12.26;100.00
43553;BME280;29153;42.696;23.218;2023-05-21T05:00:58;94269.83;;;12.37;100.00
43553;BME280;29153;42.696;23.218;2023-05-21T05:03:27;94268.17;;;12.41;100.00
43553;BME280;29153;42.696;23.218;2023-05-21T05:05:55;94273.53;;;12.55;100.00
43553;BME280;29153;42.696;23.218;2023-05-21T05:08:23;94275.38;;;12.57;100.00
43553;BME280;29153;42.696;23.218;2023-05-21T05:10:50;94271.17;;;12.69;100.00
43553;BME280;29153;42.696;23.218;2023-05-21T05:13:17;94274.79;;;12.90;100.00
43553;BME280;29153;42.696;23.218;2023-05-21T05:15:45;94276.85;;;12.93;100.00
43553;BME280;29153;42.696;23.218;2023-05-21T05:18:12;94284.12;;;13.03;100.00
43553;BME280;29153;42.696;23.218;2023-05-21T05:20:40;94289.23;;;13.16;100.00
43553;BME280;29153;42.696;23.218;2023-05-21T05:23:07;94276.13;;;13.33;100.00
43553;BME280;29153;42.696;23.218;2023-05-21T05:25:35;94278.00;;;13.46;100.00
43553;BME280;29153;42.696;23.218;2023-05-21T05:28:02;94279.16;;;13.67;100.00
43553;BME280;29153;42.696;23.218;2023-05-21T05:30:30;94268.14;;;13.85;100.00
43553;BME280;29153;42.696;23.218;2023-05-21T05:32:57;94270.34;;;14.05;100.00
43553;BME280;29153;42.696;23.218;2023-05-21T05:35:25;94272.34;;;14.36;100.00
43553;BME280;29153;42.696;23.218;2023-05-21T05:37:52;94268.94;;;14.66;100.00
43553;BME280;29153;42.696;23.218;2023-05-21T05:40:19;94271.95;;;14.84;100.00
43553;BME280;29153;42.696;23.218;2023-05-21T05:42:47;94276.80;;;14.82;100.00
43553;BME280;29153;42.696;23.218;2023-05-21T05:45:14;94272.22;;;14.94;100.00
43553;BME280;29153;42.696;23.218;2023-05-21T05:47:42;94276.34;;;15.20;100.00
43553;BME280;29153;42.696;23.218;2023-05-21T05:50:11;94274.13;;;15.13;100.00
43553;BME280;29153;42.696;23.218;2023-05-21T05:52:38;94276.05;;;15.21;98.92
43553;BME280;29153;42.696;23.218;2023-05-21T05:55:06;94268.23;;;15.33;99.55
43553;BME280;29153;42.696;23.218;2023-05-21T05:57:34;94267.36;;;15.27;97.08
43553;BME280;29153;42.696;23.218;2023-05-21T06:00:03;94277.56;;;15.44;96.61
43553;BME280;29153;42.696;23.218;2023-05-21T06:02:30;94273.91;;;15.40;96.96
43553;BME280;29153;42.696;23.218;2023-05-21T06:04:58;94271.24;;;15.52;93.99
43553;BME280;29153;42.696;23.218;2023-05-21T06:07:25;94274.27;;;15.76;95.23
43553;BME280;29153;42.696;23.218;2023-05-21T06:09:53;94243.91;;;15.55;93.69
43553;BME280;29153;42.696;23.218;2023-05-21T06:12:20;94275.05;;;15.68;91.59
43553;BME280;29153;42.696;23.218;2023-05-21T06:14:47;94272.32;;;15.87;93.82
43553;BME280;29153;42.696;23.218;2023-05-21T06:17:15;94269.22;;;16.11;93.39
43553;BME280;29153;42.696;23.218;2023-05-21T06:19:43;94270.64;;;16.09;92.66
43553;BME280;29153;42.696;23.218;2023-05-21T06:24:43;94266.80;;;16.29;89.23
43553;BME280;29153;42.696;23.218;2023-05-21T06:27:11;94254.04;;;16.09;88.57
43553;BME280;29153;42.696;23.218;2023-05-21T06:29:38;94259.48;;;16.24;90.13
43553;BME280;29153;42.696;23.218;2023-05-21T06:32:07;94260.27;;;16.24;89.56
43553;BME280;29153;42.696;23.218;2023-05-21T06:34:34;94259.63;;;16.10;88.40
43553;BME280;29153;42.696;23.218;2023-05-21T06:37:02;94262.55;;;16.28;83.22
43553;BME280;29153;42.696;23.218;2023-05-21T06:39:29;94262.05;;;16.44;82.38
43553;BME280;29153;42.696;23.218;2023-05-21T06:41:57;94256.64;;;16.37;81.99
43553;BME280;29153;42.696;23.218;2023-05-21T06:44:24;94253.42;;;16.47;82.85
43553;BME280;29153;42.696;23.218;2023-05-21T06:46:52;94253.23;;;16.52;82.61
43553;BME280;29153;42.696;23.218;2023-05-21T06:49:19;94248.14;;;16.61;81.81
43553;BME280;29153;42.696;23.218;2023-05-21T06:51:47;94250.33;;;16.76;82.72
43553;BME280;29153;42.696;23.218;2023-05-21T06:54:14;94245.98;;;16.78;84.35
43553;BME280;29153;42.696;23.218;2023-05-21T06:56:42;94246.99;;;16.88;83.15
43553;BME280;29153;42.696;23.218;2023-05-21T06:59:09;94251.08;;;16.94;81.81
43553;BME280;29153;42.696;23.218;2023-05-21T07:01:37;94254.25;;;17.11;81.88
43553;BME280;29153;42.696;23.218;2023-05-21T07:04:06;94248.25;;;17.14;81.08
43553;BME280;29153;42.696;23.218;2023-05-21T07:06:34;94250.06;;;17.07;79.89
43553;BME280;29153;42.696;23.218;2023-05-21T07:09:01;94239.63;;;17.23;83.94
43553;BME280;29153;42.696;23.218;2023-05-21T07:11:29;94240.79;;;17.43;81.65
43553;BME280;29153;42.696;23.218;2023-05-21T07:13:57;94246.83;;;17.46;79.78
43553;BME280;29153;42.696;23.218;2023-05-21T07:16:29;94246.63;;;17.45;76.39
43553;BME280;29153;42.696;23.218;2023-05-21T07:18:56;94253.34;;;17.51;73.98
43553;BME280;29153;42.696;23.218;2023-05-21T07:21:24;94250.34;;;17.61;75.64
43553;BME280;29153;42.696;23.218;2023-05-21T07:23:51;94254.45;;;17.73;74.25
43553;BME280;29153;42.696;23.218;2023-05-21T07:26:18;94252.50;;;17.97;73.75
43553;BME280;29153;42.696;23.218;2023-05-21T07:28:46;94256.73;;;18.18;72.30
43553;BME280;29153;42.696;23.218;2023-05-21T07:31:14;94251.70;;;18.38;73.92
43553;BME280;29153;42.696;23.218;2023-05-21T07:33:41;94251.94;;;18.65;72.31
43553;BME280;29153;42.696;23.218;2023-05-21T07:36:09;94262.98;;;18.85;68.87
43553;BME280;29153;42.696;23.218;2023-05-21T07:38:36;94255.56;;;19.27;68.52
43553;BME280;29153;42.696;23.218;2023-05-21T07:41:05;94252.14;;;19.69;70.04
43553;BME280;29153;42.696;23.218;2023-05-21T07:43:33;94259.19;;;19.91;64.65
43553;BME280;29153;42.696;23.218;2023-05-21T07:46:00;94256.11;;;20.29;65.38
43553;BME280;29153;42.696;23.218;2023-05-21T07:48:28;94258.44;;;20.43;61.12
43553;BME280;29153;42.696;23.218;2023-05-21T07:50:56;94259.53;;;20.76;62.57
43553;BME280;29153;42.696;23.218;2023-05-21T07:53:25;94264.52;;;20.89;60.43
43553;BME280;29153;42.696;23.218;2023-05-21T07:55:52;94254.41;;;21.20;59.96
43553;BME280;29153;42.696;23.218;2023-05-21T07:58:20;94254.73;;;21.66;60.92
43553;BME280;29153;42.696;23.218;2023-05-21T08:00:48;94259.50;;;21.47;54.31
43553;BME280;29153;42.696;23.218;2023-05-21T08:03:16;94249.39;;;21.75;57.35
43553;BME280;29153;42.696;23.218;2023-05-21T08:05:45;94254.15;;;22.23;56.47
43553;BME280;29153;42.696;23.218;2023-05-21T08:08:15;94252.61;;;22.41;57.22
43553;BME280;29153;42.696;23.218;2023-05-21T08:10:43;94256.02;;;22.48;51.54
43553;BME280;29153;42.696;23.218;2023-05-21T08:13:11;94242.09;;;22.65;51.30
43553;BME280;29153;42.696;23.218;2023-05-21T08:15:39;94246.02;;;22.87;56.18
43553;BME280;29153;42.696;23.218;2023-05-21T08:18:06;94244.66;;;22.48;54.57
43553;BME280;29153;42.696;23.218;2023-05-21T08:20:34;94248.21;;;22.08;52.91
43553;BME280;29153;42.696;23.218;2023-05-21T08:23:01;94254.17;;;21.98;53.62
43553;BME280;29153;42.696;23.218;2023-05-21T08:25:29;94251.67;;;21.73;53.68
43553;BME280;29153;42.696;23.218;2023-05-21T08:27:57;94250.95;;;21.61;56.79
43553;BME280;29153;42.696;23.218;2023-05-21T08:30:24;94251.86;;;21.74;53.67
43553;BME280;29153;42.696;23.218;2023-05-21T08:32:52;94257.45;;;21.91;50.84
43553;BME280;29153;42.696;23.218;2023-05-21T08:35:20;94262.72;;;21.68;47.61
43553;BME280;29153;42.696;23.218;2023-05-21T08:37:47;94251.45;;;21.41;49.77
43553;BME280;29153;42.696;23.218;2023-05-21T08:40:15;94250.97;;;21.45;51.27
43553;BME280;29153;42.696;23.218;2023-05-21T08:42:44;94262.97;;;21.63;46.75
43553;BME280;29153;42.696;23.218;2023-05-21T08:45:13;94253.87;;;21.62;48.32
43553;BME280;29153;42.696;23.218;2023-05-21T08:47:43;94256.28;;;21.42;45.83
43553;BME280;29153;42.696;23.218;2023-05-21T08:50:16;94254.41;;;21.36;46.21
43553;BME280;29153;42.696;23.218;2023-05-21T08:52:46;94254.00;;;21.12;48.37
43553;BME280;29153;42.696;23.218;2023-05-21T08:55:15;94260.55;;;20.99;44.06
43553;BME280;29153;42.696;23.218;2023-05-21T08:57:43;94240.83;;;20.95;45.11
43553;BME280;29153;42.696;23.218;2023-05-21T09:00:11;94249.59;;;21.14;46.95
43553;BME280;29153;42.696;23.218;2023-05-21T09:02:39;94243.98;;;21.50;49.54
43553;BME280;29153;42.696;23.218;2023-05-21T09:05:09;94249.91;;;21.81;43.69
43553;BME280;29153;42.696;23.218;2023-05-21T09:07:49;94246.34;;;21.61;45.41
43553;BME280;29153;42.696;23.218;2023-05-21T09:10:17;94241.30;;;21.75;44.25
43553;BME280;29153;42.696;23.218;2023-05-21T09:12:46;94246.77;;;22.39;44.84
43553;BME280;29153;42.696;23.218;2023-05-21T09:15:14;94251.20;;;22.66;42.08
43553;BME280;29153;42.696;23.218;2023-05-21T09:17:45;94240.38;;;23.05;46.25
43553;BME280;29153;42.696;23.218;2023-05-21T09:20:12;94242.41;;;23.11;45.54
43553;BME280;29153;42.696;23.218;2023-05-21T09:22:46;94255.14;;;23.11;40.61
43553;BME280;29153;42.696;23.218;2023-05-21T09:25:16;94246.95;;;22.85;45.34
43553;BME280;29153;42.696;23.218;2023-05-21T09:27:44;94240.30;;;22.34;41.80
43553;BME280;29153;42.696;23.218;2023-05-21T09:30:13;94246.81;;;22.14;45.35
43553;BME280;29153;42.696;23.218;2023-05-21T09:32:42;94242.52;;;22.57;44.63
43553;BME280;29153;42.696;23.218;2023-05-21T09:35:14;94236.89;;;23.04;46.60
43553;BME280;29153;42.696;23.218;2023-05-21T09:37:43;94241.72;;;23.47;49.41
43553;BME280;29153;42.696;23.218;2023-05-21T09:40:15;94233.25;;;23.48;48.26
43553;BME280;29153;42.696;23.218;2023-05-21T09:42:44;94236.95;;;23.40;41.79
43553;BME280;29153;42.696;23.218;2023-05-21T09:45:21;94235.99;;;23.20;41.58
43553;BME280;29153;42.696;23.218;2023-05-21T09:47:51;94234.17;;;23.14;39.87
43553;BME280;29153;42.696;23.218;2023-05-21T09:50:26;94234.29;;;23.21;44.53
43553;BME280;29153;42.696;23.218;2023-05-21T09:52:54;94235.25;;;23.09;40.64
43553;BME280;29153;42.696;23.218;2023-05-21T09:55:24;94216.16;;;23.22;45.72
43553;BME280;29153;42.696;23.218;2023-05-21T09:57:53;94221.34;;;23.21;42.43
43553;BME280;29153;42.696;23.218;2023-05-21T10:00:20;94233.78;;;23.25;38.68
43553;BME280;29153;42.696;23.218;2023-05-21T10:02:51;94224.79;;;23.40;41.39
43553;BME280;29153;42.696;23.218;2023-05-21T10:05:18;94224.35;;;23.38;39.91
43553;BME280;29153;42.696;23.218;2023-05-21T10:07:50;94218.16;;;23.47;39.38
43553;BME280;29153;42.696;23.218;2023-05-21T10:10:20;94218.22;;;23.41;38.51
43553;BME280;29153;42.696;23.218;2023-05-21T10:12:51;94220.38;;;23.32;44.78
43553;BME280;29153;42.696;23.218;2023-05-21T10:15:21;94217.81;;;23.49;40.85
43553;BME280;29153;42.696;23.218;2023-05-21T10:17:49;94218.80;;;23.64;41.12
43553;BME280;29153;42.696;23.218;2023-05-21T10:20:19;94216.63;;;23.86;44.31
43553;BME280;29153;42.696;23.218;2023-05-21T10:22:47;94211.82;;;23.63;36.77
43553;BME280;29153;42.696;23.218;2023-05-21T10:25:16;94215.31;;;23.63;40.33
43553;BME280;29153;42.696;23.218;2023-05-21T10:27:45;94208.91;;;23.75;40.91
43553;BME280;29153;42.696;23.218;2023-05-21T10:30:13;94199.05;;;23.73;40.60
43553;BME280;29153;42.696;23.218;2023-05-21T10:32:42;94205.89;;;23.67;37.00
43553;BME280;29153;42.696;23.218;2023-05-21T10:35:11;94200.23;;;23.75;40.89
43553;BME280;29153;42.696;23.218;2023-05-21T10:37:42;94201.06;;;23.79;39.52
43553;BME280;29153;42.696;23.218;2023-05-21T10:40:10;94197.98;;;23.54;39.27
43553;BME280;29153;42.696;23.218;2023-05-21T10:48:57;94198.63;;;22.41;40.37
43553;BME280;29153;42.696;23.218;2023-05-21T10:51:35;94206.00;;;22.44;41.71
43553;BME280;29153;42.696;23.218;2023-05-21T10:54:07;94205.92;;;22.60;40.52
43553;BME280;29153;42.696;23.218;2023-05-21T10:59:45;94194.23;;;22.33;44.00
43553;BME280;29153;42.696;23.218;2023-05-21T11:02:15;94202.92;;;21.98;43.19
43553;BME280;29153;42.696;23.218;2023-05-21T11:04:44;94204.75;;;21.78;44.54
43553;BME280;29153;42.696;23.218;2023-05-21T11:07:21;94192.50;;;21.55;44.32
43553;BME280;29153;42.696;23.218;2023-05-21T11:09:44;94194.30;;;21.42;49.78
43553;BME280;29153;42.696;23.218;2023-05-21T11:12:13;94204.22;;;21.22;44.15
43553;BME280;29153;42.696;23.218;2023-05-21T11:14:56;94196.69;;;21.37;45.36
43553;BME280;29153;42.696;23.218;2023-05-21T11:17:37;94193.14;;;21.17;47.08
43553;BME280;29153;42.696;23.218;2023-05-21T11:20:12;94196.39;;;21.11;46.25
43553;BME280;29153;42.696;23.218;2023-05-21T11:22:40;94188.31;;;20.95;45.63
43553;BME280;29153;42.696;23.218;2023-05-21T11:25:08;94184.52;;;20.74;50.64
43553;BME280;29153;42.696;23.218;2023-05-21T11:27:41;94186.13;;;20.63;51.22
43553;BME280;29153;42.696;23.218;2023-05-21T11:30:14;94187.78;;;20.46;49.38
43553;BME280;29153;42.696;23.218;2023-05-21T11:33:16;94180.88;;;20.33;51.49
43553;BME280;29153;42.696;23.218;2023-05-21T11:35:10;94187.52;;;20.23;50.41
43553;BME280;29153;42.696;23.218;2023-05-21T11:37:39;94182.70;;;20.23;48.18
43553;BME280;29153;42.696;23.218;2023-05-21T11:40:23;94177.33;;;20.51;54.10
43553;BME280;29153;42.696;23.218;2023-05-21T11:42:53;94175.18;;;20.78;50.52
43553;BME280;29153;42.696;23.218;2023-05-21T11:45:22;94167.48;;;20.70;55.09
43553;BME280;29153;42.696;23.218;2023-05-21T11:47:50;94161.81;;;20.60;57.84
43553;BME280;29153;42.696;23.218;2023-05-21T11:50:18;94164.24;;;20.49;52.97
43553;BME280;29153;42.696;23.218;2023-05-21T11:52:47;94174.41;;;20.50;49.51
43553;BME280;29153;42.696;23.218;2023-05-21T11:55:19;94169.32;;;20.38;50.60
43553;BME280;29153;42.696;23.218;2023-05-21T11:57:44;94168.89;;;20.24;48.99
43553;BME280;29153;42.696;23.218;2023-05-21T12:00:14;94166.34;;;20.22;49.23
43553;BME280;29153;42.696;23.218;2023-05-21T12:02:47;94164.22;;;20.15;53.46
43553;BME280;29153;42.696;23.218;2023-05-21T12:05:14;94163.79;;;20.13;51.75
43553;BME280;29153;42.696;23.218;2023-05-21T12:07:46;94164.22;;;20.15;49.43
43553;BME280;29153;42.696;23.218;2023-05-21T12:10:21;94155.55;;;19.94;55.70
43553;BME280;29153;42.696;23.218;2023-05-21T12:12:49;94155.26;;;19.77;53.39
43553;BME280;29153;42.696;23.218;2023-05-21T12:15:17;94148.11;;;19.75;57.91
43553;BME280;29153;42.696;23.218;2023-05-21T12:17:48;94150.57;;;19.68;58.75
43553;BME280;29153;42.696;23.218;2023-05-21T12:20:17;94149.48;;;19.57;55.84
43553;BME280;29153;42.696;23.218;2023-05-21T12:22:47;94145.44;;;19.39;55.61
43553;BME280;29153;42.696;23.218;2023-05-21T12:25:15;94148.70;;;19.14;58.10
43553;BME280;29153;42.696;23.218;2023-05-21T12:27:45;94150.59;;;19.14;58.45
43553;BME280;29153;42.696;23.218;2023-05-21T12:30:14;94147.91;;;19.14;61.67
43553;BME280;29153;42.696;23.218;2023-05-21T12:32:42;94154.64;;;19.07;63.48
43553;BME280;29153;42.696;23.218;2023-05-21T12:35:23;94150.05;;;19.02;66.64
43553;BME280;29153;42.696;23.218;2023-05-21T12:37:50;94148.58;;;19.04;59.52
43553;BME280;29153;42.696;23.218;2023-05-21T12:40:19;94140.20;;;19.06;63.13
43553;BME280;29153;42.696;23.218;2023-05-21T12:42:48;94139.86;;;19.14;57.74
43553;BME280;29153;42.696;23.218;2023-05-21T12:45:16;94137.61;;;19.22;57.11
43553;BME280;29153;42.696;23.218;2023-05-21T12:47:49;94136.62;;;19.20;58.94
43553;BME280;29153;42.696;23.218;2023-05-21T12:50:20;94132.92;;;19.19;58.48
43553;BME280;29153;42.696;23.218;2023-05-21T12:52:47;94139.42;;;19.24;57.80
43553;BME280;29153;42.696;23.218;2023-05-21T12:55:16;94130.80;;;19.24;58.53
43553;BME280;29153;42.696;23.218;2023-05-21T12:57:43;94131.13;;;19.23;60.60
43553;BME280;29153;42.696;23.218;2023-05-21T13:00:12;94133.84;;;19.17;59.03
43553;BME280;29153;42.696;23.218;2023-05-21T13:02:41;94130.23;;;19.13;61.00
43553;BME280;29153;42.696;23.218;2023-05-21T13:05:10;94125.11;;;19.07;65.12
43553;BME280;29153;42.696;23.218;2023-05-21T13:07:39;94131.47;;;19.09;63.62